Webcam Flughafen St.Gallen-Altenrhein

Live-Bilder und Zeitraffer LSZR / ACH.

 

Live aus Altenrhein
LIVE
LSZR 181420Z 27008KT 230V290 8000 NSC 21/16 Q1022 NOSIG RMK L
Zeitraffer heute
2020-09-18 00:14:59
LSZR 172150Z AUTO VRB01KT CAVOK 19/16 Q1021